createdAt,value
2023-01-05T00:01:53.358Z,27.00
2023-01-05T00:04:43.520Z,26.97
2023-01-05T00:07:32.228Z,26.99
2023-01-05T00:10:34.716Z,26.98
2023-01-05T00:13:41.292Z,26.92
2023-01-05T00:16:47.497Z,27.01
2023-01-05T00:19:54.657Z,26.82
2023-01-05T00:22:46.772Z,26.83
2023-01-05T00:25:39.050Z,26.78
2023-01-05T00:28:27.733Z,26.74
2023-01-05T00:31:16.392Z,26.73
2023-01-05T00:34:05.039Z,26.68
2023-01-05T00:36:53.695Z,26.59
2023-01-05T00:39:43.768Z,26.54
2023-01-05T00:42:32.355Z,26.49
2023-01-05T00:45:21.953Z,26.53
2023-01-05T00:48:10.641Z,26.55
2023-01-05T00:50:59.224Z,26.58
2023-01-05T00:53:49.696Z,26.46
2023-01-05T00:56:40.902Z,26.48
2023-01-05T00:59:29.526Z,26.43
2023-01-05T01:02:18.204Z,26.33
2023-01-05T01:05:07.823Z,26.31
2023-01-05T01:07:56.488Z,26.28
2023-01-05T01:10:45.062Z,26.29
2023-01-05T01:13:35.118Z,26.22
2023-01-05T01:16:23.849Z,26.28
2023-01-05T01:19:15.603Z,26.26
2023-01-05T01:22:04.377Z,26.24
2023-01-05T01:24:53.850Z,26.26
2023-01-05T01:27:42.523Z,26.27
2023-01-05T01:30:32.637Z,26.26
2023-01-05T01:33:21.353Z,26.22
2023-01-05T01:36:11.707Z,26.26
2023-01-05T01:39:00.331Z,26.27
2023-01-05T01:41:49.263Z,26.24
2023-01-05T01:44:56.003Z,26.26
2023-01-05T01:47:51.142Z,26.25
2023-01-05T01:50:43.302Z,26.21
2023-01-05T01:53:34.003Z,26.18
2023-01-05T01:56:24.555Z,26.22
2023-01-05T01:59:13.417Z,26.18
2023-01-05T02:02:03.332Z,26.17
2023-01-05T02:04:53.423Z,26.21
2023-01-05T02:07:46.184Z,26.25
2023-01-05T02:10:50.802Z,26.27
2023-01-05T02:13:50.449Z,26.22
2023-01-05T02:16:48.939Z,26.23
2023-01-05T02:20:03.985Z,26.24
2023-01-05T02:23:11.992Z,26.26
2023-01-05T02:26:35.025Z,26.23
2023-01-05T02:29:55.309Z,26.26
2023-01-05T02:32:49.390Z,26.32
2023-01-05T02:35:43.604Z,26.31
2023-01-05T02:38:36.718Z,26.29
2023-01-05T02:41:27.870Z,26.22
2023-01-05T02:44:17.972Z,26.16
2023-01-05T02:47:08.498Z,26.16
2023-01-05T02:50:02.431Z,26.24
2023-01-05T02:52:57.799Z,26.25
2023-01-05T02:55:53.684Z,26.21
2023-01-05T02:58:45.630Z,26.22
2023-01-05T03:01:36.043Z,26.15
2023-01-05T03:04:27.616Z,26.16
2023-01-05T03:07:20.634Z,26.12
2023-01-05T03:10:23.754Z,26.15
2023-01-05T03:13:30.255Z,26.15
2023-01-05T03:16:23.363Z,26.16
2023-01-05T03:19:31.787Z,26.12
2023-01-05T03:22:43.196Z,26.11
2023-01-05T03:25:49.645Z,26.17
2023-01-05T03:28:59.851Z,26.14
2023-01-05T03:32:08.670Z,26.14
2023-01-05T03:35:18.050Z,26.16
2023-01-05T03:38:18.122Z,26.06
2023-01-05T03:41:10.209Z,26.06
2023-01-05T03:43:58.935Z,26.04
2023-01-05T03:46:47.734Z,26.08
2023-01-05T03:49:36.600Z,26.09
2023-01-05T03:52:25.258Z,26.05
2023-01-05T03:55:15.244Z,26.04
2023-01-05T03:58:03.960Z,26.09
2023-01-05T04:00:52.584Z,26.24
2023-01-05T04:03:41.869Z,26.14
2023-01-05T04:06:30.592Z,26.15
2023-01-05T04:09:19.225Z,26.09
2023-01-05T04:12:09.332Z,26.04
2023-01-05T04:14:57.968Z,26.05
2023-01-05T04:17:46.574Z,26.10
2023-01-05T04:20:35.146Z,26.17
2023-01-05T04:23:23.765Z,26.17
2023-01-05T04:26:12.354Z,26.21
2023-01-05T04:29:02.338Z,26.17
2023-01-05T04:31:50.861Z,26.20
2023-01-05T04:34:39.552Z,26.22
2023-01-05T04:37:28.196Z,26.19
2023-01-05T04:40:16.974Z,26.11
2023-01-05T04:43:05.848Z,26.15
2023-01-05T04:45:55.843Z,26.14
2023-01-05T04:48:44.437Z,26.13
2023-01-05T04:51:33.111Z,26.13
2023-01-05T04:54:21.772Z,26.07
2023-01-05T04:57:10.397Z,26.09
2023-01-05T04:59:59.032Z,26.06
2023-01-05T05:02:50.026Z,26.13
2023-01-05T05:05:38.789Z,26.14
2023-01-05T05:08:27.420Z,26.18
2023-01-05T05:11:16.041Z,26.27
2023-01-05T05:14:04.634Z,26.29
2023-01-05T05:16:53.283Z,26.33
2023-01-05T05:19:43.413Z,26.43
2023-01-05T05:22:32.107Z,26.31
2023-01-05T05:25:20.730Z,26.20
2023-01-05T05:28:09.317Z,26.17
2023-01-05T05:30:58.664Z,26.27
2023-01-05T05:33:47.308Z,26.34
2023-01-05T05:36:38.133Z,26.35
2023-01-05T05:39:26.746Z,26.29
2023-01-05T05:42:15.361Z,26.29
2023-01-05T05:45:04.019Z,26.23
2023-01-05T05:47:52.633Z,26.14
2023-01-05T05:50:41.321Z,26.07
2023-01-05T05:53:31.372Z,26.08
2023-01-05T05:56:20.220Z,26.10
2023-01-05T05:59:08.886Z,26.09
2023-01-05T06:01:57.615Z,26.09
2023-01-05T06:04:46.353Z,26.07
2023-01-05T06:07:35.006Z,26.09
2023-01-05T06:10:24.982Z,26.08
2023-01-05T06:13:13.917Z,26.04
2023-01-05T06:16:02.623Z,26.08
2023-01-05T06:18:51.276Z,26.11
2023-01-05T06:21:39.880Z,26.01
2023-01-05T06:24:28.468Z,26.03
2023-01-05T06:27:18.568Z,25.99
2023-01-05T06:30:08.343Z,26.08
2023-01-05T06:32:57.097Z,26.03
2023-01-05T06:35:45.768Z,26.01
2023-01-05T06:38:34.352Z,26.02
2023-01-05T06:41:22.950Z,26.01
2023-01-05T06:44:13.071Z,25.98
2023-01-05T06:47:01.918Z,25.98
2023-01-05T06:49:50.542Z,25.97
2023-01-05T06:52:40.259Z,25.99
2023-01-05T06:55:30.119Z,25.99
2023-01-05T06:58:18.702Z,26.00
2023-01-05T07:01:08.903Z,25.95
2023-01-05T07:03:57.660Z,25.93
2023-01-05T07:06:46.324Z,25.98
2023-01-05T07:09:34.883Z,26.07
2023-01-05T07:12:23.534Z,26.08
2023-01-05T07:15:12.538Z,26.03
2023-01-05T07:18:02.507Z,26.02
2023-01-05T07:20:51.111Z,26.02
2023-01-05T07:23:39.787Z,26.12
2023-01-05T07:26:28.422Z,26.08
2023-01-05T07:29:17.164Z,26.11
2023-01-05T07:32:06.613Z,26.07
2023-01-05T07:34:56.654Z,26.01
2023-01-05T07:37:45.407Z,25.97
2023-01-05T07:40:33.965Z,25.97
2023-01-05T07:43:22.672Z,25.95
2023-01-05T07:46:11.731Z,25.99
2023-01-05T07:49:00.420Z,25.94
2023-01-05T07:51:50.432Z,25.88
2023-01-05T07:54:39.164Z,25.88
2023-01-05T07:57:27.940Z,25.89
2023-01-05T08:00:17.216Z,25.84
2023-01-05T08:03:05.872Z,25.87
2023-01-05T08:05:54.478Z,25.87
2023-01-05T08:08:44.521Z,25.92
2023-01-05T08:11:33.187Z,25.91
2023-01-05T08:14:21.943Z,25.91
2023-01-05T08:17:10.611Z,25.92
2023-01-05T08:19:59.249Z,25.91
2023-01-05T08:22:52.082Z,25.89
2023-01-05T08:25:42.058Z,25.92
2023-01-05T08:28:35.219Z,25.92
2023-01-05T08:31:27.085Z,25.88
2023-01-05T08:34:15.809Z,25.87
2023-01-05T08:37:04.519Z,25.86
2023-01-05T08:39:53.220Z,25.85
2023-01-05T08:42:43.280Z,25.86
2023-01-05T08:45:32.005Z,25.89
2023-01-05T08:48:20.672Z,25.89
2023-01-05T08:51:09.291Z,25.86
2023-01-05T08:53:59.046Z,25.87
2023-01-05T08:56:50.519Z,25.99
2023-01-05T08:59:40.736Z,25.90
2023-01-05T09:02:29.486Z,25.96
2023-01-05T09:05:18.575Z,25.96
2023-01-05T09:08:07.209Z,26.01
2023-01-05T09:10:55.979Z,25.99
2023-01-05T09:13:47.880Z,26.00
2023-01-05T09:19:46.587Z,26.65
2023-01-05T09:22:36.287Z,26.74
2023-01-05T09:25:25.126Z,26.78
2023-01-05T09:28:13.800Z,26.95
2023-01-05T09:31:08.196Z,26.89
2023-01-05T09:33:59.588Z,27.03
2023-01-05T09:36:48.452Z,26.91
2023-01-05T09:39:37.118Z,26.81
2023-01-05T09:42:27.498Z,26.80
2023-01-05T09:45:23.298Z,26.90
2023-01-05T09:48:13.669Z,26.98
2023-01-05T09:51:03.697Z,27.14
2023-01-05T09:53:52.495Z,27.12
2023-01-05T09:57:08.960Z,27.23
2023-01-05T09:59:54.405Z,27.06
2023-01-05T10:02:48.072Z,27.33
2023-01-05T10:05:40.234Z,27.23
2023-01-05T10:08:35.843Z,27.33
2023-01-05T10:11:47.069Z,27.25
2023-01-05T10:14:40.040Z,27.54
2023-01-05T10:17:41.339Z,27.61
2023-01-05T10:20:37.627Z,27.66
2023-01-05T10:23:50.922Z,27.76
2023-01-05T10:27:14.354Z,27.71
2023-01-05T10:29:59.618Z,27.75
2023-01-05T10:33:14.829Z,27.73
2023-01-05T10:36:16.579Z,27.78
2023-01-05T10:39:14.009Z,27.78
2023-01-05T10:42:08.096Z,27.64
2023-01-05T10:44:59.072Z,27.46
2023-01-05T10:47:48.576Z,27.35
2023-01-05T10:50:39.143Z,27.66
2023-01-05T10:53:29.554Z,27.19
2023-01-05T10:56:25.698Z,27.34
2023-01-05T10:59:15.823Z,27.56
2023-01-05T11:02:04.740Z,27.69
2023-01-05T11:04:54.096Z,27.79
2023-01-05T11:07:48.742Z,27.76
2023-01-05T11:10:39.600Z,27.85
2023-01-05T11:13:34.843Z,27.81
2023-01-05T11:16:26.413Z,27.41
2023-01-05T11:19:18.171Z,27.25
2023-01-05T11:22:06.813Z,26.99
2023-01-05T11:24:55.390Z,27.08
2023-01-05T11:27:44.035Z,27.12
2023-01-05T11:30:34.676Z,27.15
2023-01-05T11:33:25.989Z,27.22
2023-01-05T11:36:16.318Z,27.14
2023-01-05T11:39:05.133Z,27.14
2023-01-05T11:41:53.859Z,27.17
2023-01-05T11:44:47.783Z,27.22
2023-01-05T11:47:44.383Z,26.96
2023-01-05T11:50:35.638Z,26.85
2023-01-05T11:53:37.710Z,26.88
2023-01-05T11:56:26.796Z,26.91
2023-01-05T11:59:30.770Z,27.00
2023-01-05T12:02:34.898Z,26.99
2023-01-05T12:05:30.542Z,27.09
2023-01-05T12:08:23.092Z,27.00
2023-01-05T12:11:14.520Z,26.99
2023-01-05T12:14:21.374Z,27.01
2023-01-05T12:17:15.148Z,27.08
2023-01-05T12:20:14.072Z,27.01
2023-01-05T12:23:19.058Z,26.98
2023-01-05T12:26:15.774Z,27.09
2023-01-05T12:36:18.678Z,27.32
2023-01-05T12:39:31.582Z,27.27
2023-01-05T12:42:34.331Z,27.40
2023-01-05T12:45:58.429Z,27.39
2023-01-05T12:48:49.997Z,27.37
2023-01-05T12:51:42.781Z,27.39
2023-01-05T12:54:39.874Z,27.36
2023-01-05T12:57:32.704Z,27.38
2023-01-05T13:00:22.238Z,27.34
2023-01-05T13:03:17.376Z,27.29
2023-01-05T13:06:08.705Z,27.30
2023-01-05T13:08:59.990Z,27.24
2023-01-05T13:11:53.188Z,27.24
2023-01-05T13:14:52.545Z,27.26
2023-01-05T13:17:44.362Z,27.25
2023-01-05T13:20:40.230Z,27.26
2023-01-05T13:23:30.905Z,27.27
2023-01-05T13:26:20.526Z,27.27
2023-01-05T13:29:23.021Z,27.40
2023-01-05T13:32:23.522Z,27.50
2023-01-05T13:35:23.284Z,27.71
2023-01-05T13:39:00.094Z,27.75
2023-01-05T13:42:08.946Z,27.77
2023-01-05T13:45:25.308Z,27.51
2023-01-05T13:48:44.257Z,27.43
2023-01-05T13:51:47.031Z,27.64
2023-01-05T13:54:59.920Z,27.71
2023-01-05T13:57:49.973Z,27.68
2023-01-05T14:00:43.654Z,27.66
2023-01-05T14:03:34.615Z,27.68
2023-01-05T14:06:26.713Z,27.84
2023-01-05T14:09:18.330Z,27.89
2023-01-05T14:12:25.806Z,27.89
2023-01-05T14:15:37.887Z,27.90
2023-01-05T14:18:52.303Z,27.93
2023-01-05T14:22:02.455Z,27.88
2023-01-05T14:24:52.375Z,27.87
2023-01-05T14:28:24.179Z,27.69
2023-01-05T14:31:38.402Z,27.55
2023-01-05T14:34:29.631Z,27.28
2023-01-05T14:37:24.233Z,27.17
2023-01-05T14:40:22.834Z,27.46
2023-01-05T14:43:24.576Z,27.40
2023-01-05T14:46:15.162Z,27.45
2023-01-05T14:49:06.920Z,27.62
2023-01-05T14:51:58.438Z,27.61
2023-01-05T14:55:27.124Z,27.54
2023-01-05T14:58:50.779Z,27.65
2023-01-05T15:04:33.182Z,27.70
2023-01-05T15:07:33.594Z,27.73
2023-01-05T15:10:49.816Z,27.69
2023-01-05T15:14:15.987Z,27.62
2023-01-05T15:17:45.258Z,27.33
2023-01-05T15:21:19.482Z,27.52
2023-01-05T15:24:49.974Z,27.64
2023-01-05T15:27:51.218Z,27.61
2023-01-05T15:31:04.992Z,27.12
2023-01-05T15:33:57.705Z,27.37
2023-01-05T15:36:51.578Z,27.44
2023-01-05T15:39:48.684Z,27.60
2023-01-05T15:42:40.489Z,27.60
2023-01-05T15:45:30.805Z,27.63
2023-01-05T15:48:27.174Z,27.73
2023-01-05T15:51:24.128Z,27.68
2023-01-05T15:54:24.126Z,27.66
2023-01-05T15:57:22.134Z,27.75
2023-01-05T16:00:18.840Z,27.67
2023-01-05T16:03:22.044Z,27.66
2023-01-05T16:06:12.893Z,27.66
2023-01-05T16:09:09.796Z,27.74
2023-01-05T16:12:01.093Z,27.50
2023-01-05T16:14:57.730Z,27.14
2023-01-05T16:17:46.500Z,26.98
2023-01-05T16:20:36.528Z,26.83
2023-01-05T16:23:29.999Z,26.83
2023-01-05T16:26:19.420Z,26.68
2023-01-05T16:29:21.891Z,26.52
2023-01-05T16:32:28.248Z,26.56
2023-01-05T16:35:33.119Z,26.52
2023-01-05T16:38:26.824Z,26.52
2023-01-05T16:41:21.189Z,26.61
2023-01-05T16:44:14.133Z,26.51
2023-01-05T16:47:07.536Z,26.49
2023-01-05T16:49:58.522Z,26.41
2023-01-05T16:52:53.457Z,26.57
2023-01-05T16:55:42.555Z,26.49
2023-01-05T16:58:39.333Z,26.61
2023-01-05T17:01:35.753Z,26.63
2023-01-05T17:04:24.449Z,26.59
2023-01-05T17:07:14.437Z,26.53
2023-01-05T17:10:03.008Z,26.46
2023-01-05T17:12:57.792Z,26.73
2023-01-05T17:15:47.854Z,27.08
2023-01-05T17:18:36.505Z,27.18
2023-01-05T17:21:27.456Z,27.21
2023-01-05T17:24:17.525Z,27.30
2023-01-05T17:27:06.185Z,27.36
2023-01-05T17:32:49.142Z,27.46
2023-01-05T17:35:37.803Z,27.43
2023-01-05T17:38:26.416Z,27.46
2023-01-05T17:41:17.142Z,27.44
2023-01-05T17:44:06.188Z,27.49
2023-01-05T17:46:54.852Z,27.49
2023-01-05T17:49:43.833Z,27.47
2023-01-05T17:52:32.497Z,27.36
2023-01-05T17:55:21.120Z,27.53
2023-01-05T17:58:13.407Z,27.59
2023-01-05T18:01:02.155Z,27.64
2023-01-05T18:03:50.952Z,27.62
2023-01-05T18:06:39.596Z,27.70
2023-01-05T18:09:28.305Z,27.75
2023-01-05T18:12:16.881Z,27.55
2023-01-05T18:15:08.306Z,27.66
2023-01-05T18:17:58.272Z,27.61
2023-01-05T18:20:46.881Z,27.65
2023-01-05T18:23:35.873Z,27.52
2023-01-05T18:26:24.510Z,26.98
2023-01-05T18:29:13.213Z,27.04
2023-01-05T18:32:03.166Z,27.08
2023-01-05T18:34:52.361Z,27.01
2023-01-05T18:37:41.643Z,27.26
2023-01-05T18:40:30.275Z,27.28
2023-01-05T18:43:19.124Z,27.49
2023-01-05T18:46:08.212Z,27.45
2023-01-05T18:48:58.152Z,27.37
2023-01-05T18:51:46.788Z,27.36
2023-01-05T18:54:35.443Z,27.36
2023-01-05T18:57:24.111Z,27.31
2023-01-05T19:00:14.155Z,27.33
2023-01-05T19:03:05.243Z,27.25
2023-01-05T19:05:55.186Z,27.11
2023-01-05T19:08:44.140Z,27.23
2023-01-05T19:11:33.050Z,27.20
2023-01-05T19:14:21.700Z,27.25
2023-01-05T19:17:10.318Z,27.27
2023-01-05T19:19:58.990Z,27.20
2023-01-05T19:22:49.128Z,27.16
2023-01-05T19:25:37.780Z,27.07
2023-01-05T19:28:26.406Z,27.05
2023-01-05T19:31:16.348Z,27.14
2023-01-05T19:34:05.715Z,27.07
2023-01-05T19:36:54.322Z,27.07
2023-01-05T19:39:44.317Z,27.07
2023-01-05T19:42:33.160Z,27.13
2023-01-05T19:45:21.848Z,27.11
2023-01-05T19:48:10.466Z,27.16
2023-01-05T19:50:59.691Z,27.08
2023-01-05T19:53:55.414Z,26.99
2023-01-05T19:56:46.232Z,27.04
2023-01-05T19:59:34.876Z,26.99
2023-01-05T20:02:23.463Z,26.99
2023-01-05T20:05:14.061Z,27.05
2023-01-05T20:08:02.839Z,26.95
2023-01-05T20:10:51.366Z,27.00
2023-01-05T20:13:42.012Z,27.00
2023-01-05T20:16:30.654Z,26.98
2023-01-05T20:19:19.916Z,27.10
2023-01-05T20:22:13.559Z,26.94
2023-01-05T20:25:02.302Z,26.96
2023-01-05T20:27:51.073Z,26.95
2023-01-05T20:30:41.018Z,26.96
2023-01-05T20:33:30.082Z,27.04
2023-01-05T20:36:18.772Z,26.92
2023-01-05T20:39:08.869Z,26.92
2023-01-05T20:42:04.549Z,27.07
2023-01-05T20:44:53.313Z,27.10
2023-01-05T20:47:47.702Z,27.03
2023-01-05T20:50:36.742Z,26.93
2023-01-05T20:53:25.349Z,26.95
2023-01-05T20:56:16.051Z,26.89
2023-01-05T20:59:04.986Z,26.83
2023-01-05T21:01:53.682Z,26.91
2023-01-05T21:04:43.659Z,26.97
2023-01-05T21:07:32.274Z,26.96
2023-01-05T21:10:20.965Z,27.00
2023-01-05T21:13:30.750Z,26.97
2023-01-05T21:16:20.485Z,26.97
2023-01-05T21:19:09.652Z,26.97
2023-01-05T21:21:59.987Z,27.05
2023-01-05T21:24:48.663Z,27.04
2023-01-05T21:27:37.498Z,27.11
2023-01-05T21:30:26.044Z,26.97
2023-01-05T21:33:15.405Z,27.00
2023-01-05T21:36:04.233Z,26.97
2023-01-05T21:39:01.187Z,26.97
2023-01-05T21:42:09.946Z,26.98
2023-01-05T21:44:58.661Z,26.96
2023-01-05T21:47:52.958Z,26.98
2023-01-05T21:50:59.250Z,26.96
2023-01-05T21:54:07.970Z,26.91
2023-01-05T21:56:59.091Z,26.84
2023-01-05T21:59:47.717Z,26.76
2023-01-05T22:02:36.450Z,26.85
2023-01-05T22:05:25.018Z,26.86
2023-01-05T22:08:13.704Z,26.83
2023-01-05T22:11:02.881Z,26.92
2023-01-05T22:13:52.915Z,26.88
2023-01-05T22:16:41.803Z,26.92
2023-01-05T22:19:30.433Z,27.33
2023-01-05T22:22:19.121Z,27.49
2023-01-05T22:25:08.541Z,27.56
2023-01-05T22:27:57.630Z,27.58
2023-01-05T22:30:47.610Z,27.60
2023-01-05T22:33:38.084Z,27.67
2023-01-05T22:36:27.968Z,27.74
2023-01-05T22:39:16.824Z,27.87
2023-01-05T22:42:05.586Z,27.82
2023-01-05T22:44:54.151Z,27.89
2023-01-05T22:47:44.194Z,27.88
2023-01-05T22:50:33.485Z,27.31
2023-01-05T22:53:22.374Z,27.16
2023-01-05T22:56:12.700Z,26.98
2023-01-05T22:59:01.832Z,26.89
2023-01-05T23:01:50.779Z,26.86
2023-01-05T23:04:40.766Z,26.76
2023-01-05T23:07:29.409Z,26.66
2023-01-05T23:10:18.247Z,26.69
2023-01-05T23:13:07.064Z,26.70
2023-01-05T23:15:56.321Z,26.51
2023-01-05T23:18:45.254Z,26.48
2023-01-05T23:21:35.706Z,26.43
2023-01-05T23:24:24.890Z,26.48
2023-01-05T23:27:13.527Z,26.40
2023-01-05T23:30:02.152Z,26.38
2023-01-05T23:32:50.770Z,26.36
2023-01-05T23:35:40.052Z,26.33
2023-01-05T23:38:30.358Z,26.33
2023-01-05T23:41:19.448Z,26.28
2023-01-05T23:44:08.738Z,26.21
2023-01-05T23:46:57.336Z,26.16
2023-01-05T23:49:46.079Z,26.13
2023-01-05T23:52:35.029Z,26.10
2023-01-05T23:55:25.067Z,26.10
2023-01-05T23:58:13.826Z,26.06
